sensor_id;sensor_type;location;lat;lon;timestamp;P1;durP1;ratioP1;P2;durP2;ratioP2
63010;SDS011;49100;48.842;2.166;2022-11-20T00:02:03;47.50;;;38.75;;
63010;SDS011;49100;48.842;2.166;2022-11-20T00:04:47;52.00;;;39.50;;
63010;SDS011;49100;48.842;2.166;2022-11-20T00:07:31;52.75;;;39.00;;
63010;SDS011;49100;48.842;2.166;2022-11-20T00:10:16;47.00;;;38.25;;
63010;SDS011;49100;48.842;2.166;2022-11-20T00:13:00;47.50;;;38.25;;
63010;SDS011;49100;48.842;2.166;2022-11-20T00:15:44;45.75;;;34.75;;
63010;SDS011;49100;48.842;2.166;2022-11-20T00:18:29;46.50;;;35.75;;
63010;SDS011;49100;48.842;2.166;2022-11-20T00:21:14;37.75;;;33.00;;
63010;SDS011;49100;48.842;2.166;2022-11-20T00:23:59;46.25;;;37.00;;
63010;SDS011;49100;48.842;2.166;2022-11-20T00:26:43;45.75;;;35.50;;
63010;SDS011;49100;48.842;2.166;2022-11-20T00:29:28;44.50;;;35.75;;
63010;SDS011;49100;48.842;2.166;2022-11-20T00:32:12;46.50;;;35.75;;
63010;SDS011;49100;48.842;2.166;2022-11-20T00:34:57;45.50;;;35.25;;
63010;SDS011;49100;48.842;2.166;2022-11-20T00:37:41;46.50;;;35.50;;
63010;SDS011;49100;48.842;2.166;2022-11-20T00:40:25;47.00;;;35.50;;
63010;SDS011;49100;48.842;2.166;2022-11-20T00:43:10;41.25;;;36.00;;
63010;SDS011;49100;48.842;2.166;2022-11-20T00:46:01;41.50;;;34.75;;
63010;SDS011;49100;48.842;2.166;2022-11-20T00:48:46;42.25;;;34.25;;
63010;SDS011;49100;48.842;2.166;2022-11-20T00:51:30;33.50;;;27.75;;
63010;SDS011;49100;48.842;2.166;2022-11-20T00:54:15;39.75;;;31.75;;
63010;SDS011;49100;48.842;2.166;2022-11-20T00:56:59;41.50;;;33.00;;
63010;SDS011;49100;48.842;2.166;2022-11-20T00:59:43;36.50;;;32.25;;
63010;SDS011;49100;48.842;2.166;2022-11-20T01:02:28;39.25;;;30.50;;
63010;SDS011;49100;48.842;2.166;2022-11-20T01:05:12;38.00;;;30.50;;
63010;SDS011;49100;48.842;2.166;2022-11-20T01:07:57;33.25;;;30.75;;
63010;SDS011;49100;48.842;2.166;2022-11-20T01:10:42;37.25;;;32.00;;
63010;SDS011;49100;48.842;2.166;2022-11-20T01:13:27;42.75;;;32.75;;
63010;SDS011;49100;48.842;2.166;2022-11-20T01:16:25;37.75;;;32.50;;
63010;SDS011;49100;48.842;2.166;2022-11-20T01:19:10;27.25;;;25.50;;
63010;SDS011;49100;48.842;2.166;2022-11-20T01:21:55;32.00;;;28.75;;
63010;SDS011;49100;48.842;2.166;2022-11-20T01:24:40;38.25;;;28.75;;
63010;SDS011;49100;48.842;2.166;2022-11-20T01:27:24;37.00;;;32.25;;
63010;SDS011;49100;48.842;2.166;2022-11-20T01:30:09;34.00;;;30.00;;
63010;SDS011;49100;48.842;2.166;2022-11-20T01:32:54;33.75;;;27.75;;
63010;SDS011;49100;48.842;2.166;2022-11-20T01:35:39;33.00;;;28.75;;
63010;SDS011;49100;48.842;2.166;2022-11-20T01:38:23;31.00;;;29.00;;
63010;SDS011;49100;48.842;2.166;2022-11-20T01:41:08;32.25;;;27.00;;
63010;SDS011;49100;48.842;2.166;2022-11-20T01:43:53;36.50;;;27.25;;
63010;SDS011;49100;48.842;2.166;2022-11-20T01:46:38;32.75;;;28.00;;
63010;SDS011;49100;48.842;2.166;2022-11-20T01:49:24;31.50;;;28.00;;
63010;SDS011;49100;48.842;2.166;2022-11-20T01:52:15;28.50;;;25.50;;
63010;SDS011;49100;48.842;2.166;2022-11-20T01:55:03;35.50;;;27.00;;
63010;SDS011;49100;48.842;2.166;2022-11-20T01:57:49;32.00;;;28.00;;
63010;SDS011;49100;48.842;2.166;2022-11-20T02:00:33;35.75;;;29.25;;
63010;SDS011;49100;48.842;2.166;2022-11-20T02:03:18;29.75;;;27.00;;
63010;SDS011;49100;48.842;2.166;2022-11-20T02:09:06;37.50;;;28.75;;
63010;SDS011;49100;48.842;2.166;2022-11-20T02:11:50;31.50;;;27.00;;
63010;SDS011;49100;48.842;2.166;2022-11-20T02:14:35;32.00;;;26.25;;
63010;SDS011;49100;48.842;2.166;2022-11-20T02:17:20;36.75;;;29.25;;
63010;SDS011;49100;48.842;2.166;2022-11-20T02:20:04;30.50;;;26.25;;
63010;SDS011;49100;48.842;2.166;2022-11-20T02:22:59;24.50;;;23.25;;
63010;SDS011;49100;48.842;2.166;2022-11-20T02:25:47;29.25;;;26.50;;
63010;SDS011;49100;48.842;2.166;2022-11-20T02:28:32;26.50;;;23.25;;
63010;SDS011;49100;48.842;2.166;2022-11-20T02:31:16;28.00;;;23.75;;
63010;SDS011;49100;48.842;2.166;2022-11-20T02:34:01;25.50;;;24.50;;
63010;SDS011;49100;48.842;2.166;2022-11-20T02:36:45;28.75;;;23.25;;
63010;SDS011;49100;48.842;2.166;2022-11-20T02:39:30;29.50;;;25.00;;
63010;SDS011;49100;48.842;2.166;2022-11-20T02:42:15;28.25;;;24.75;;
63010;SDS011;49100;48.842;2.166;2022-11-20T02:44:59;27.50;;;24.50;;
63010;SDS011;49100;48.842;2.166;2022-11-20T02:47:43;32.25;;;27.75;;
63010;SDS011;49100;48.842;2.166;2022-11-20T02:50:28;30.50;;;24.25;;
63010;SDS011;49100;48.842;2.166;2022-11-20T02:53:12;27.25;;;26.00;;
63010;SDS011;49100;48.842;2.166;2022-11-20T02:55:56;29.50;;;27.25;;
63010;SDS011;49100;48.842;2.166;2022-11-20T02:58:41;32.00;;;26.50;;
63010;SDS011;49100;48.842;2.166;2022-11-20T03:01:25;29.50;;;25.50;;
63010;SDS011;49100;48.842;2.166;2022-11-20T03:04:09;25.25;;;23.75;;
63010;SDS011;49100;48.842;2.166;2022-11-20T03:06:54;26.00;;;24.75;;
63010;SDS011;49100;48.842;2.166;2022-11-20T03:09:38;22.50;;;20.25;;
63010;SDS011;49100;48.842;2.166;2022-11-20T03:12:23;31.25;;;26.00;;
63010;SDS011;49100;48.842;2.166;2022-11-20T03:15:07;33.25;;;28.00;;
63010;SDS011;49100;48.842;2.166;2022-11-20T03:17:55;28.00;;;25.25;;
63010;SDS011;49100;48.842;2.166;2022-11-20T03:20:39;30.75;;;23.50;;
63010;SDS011;49100;48.842;2.166;2022-11-20T03:23:24;34.00;;;28.75;;
63010;SDS011;49100;48.842;2.166;2022-11-20T03:28:54;24.75;;;23.50;;
63010;SDS011;49100;48.842;2.166;2022-11-20T03:31:39;27.50;;;24.00;;
63010;SDS011;49100;48.842;2.166;2022-11-20T03:34:24;32.50;;;27.00;;
63010;SDS011;49100;48.842;2.166;2022-11-20T03:37:09;35.50;;;28.25;;
63010;SDS011;49100;48.842;2.166;2022-11-20T03:39:53;28.25;;;24.75;;
63010;SDS011;49100;48.842;2.166;2022-11-20T03:42:37;28.50;;;27.25;;
63010;SDS011;49100;48.842;2.166;2022-11-20T03:45:31;34.00;;;26.50;;
63010;SDS011;49100;48.842;2.166;2022-11-20T03:48:15;33.25;;;26.75;;
63010;SDS011;49100;48.842;2.166;2022-11-20T03:51:10;26.00;;;25.50;;
63010;SDS011;49100;48.842;2.166;2022-11-20T03:53:56;30.25;;;24.75;;
63010;SDS011;49100;48.842;2.166;2022-11-20T03:56:40;28.50;;;23.75;;
63010;SDS011;49100;48.842;2.166;2022-11-20T03:59:24;26.50;;;24.50;;
63010;SDS011;49100;48.842;2.166;2022-11-20T04:02:09;26.25;;;22.25;;
63010;SDS011;49100;48.842;2.166;2022-11-20T04:04:53;35.00;;;28.00;;
63010;SDS011;49100;48.842;2.166;2022-11-20T04:07:37;31.00;;;25.50;;
63010;SDS011;49100;48.842;2.166;2022-11-20T04:10:22;28.00;;;26.75;;
63010;SDS011;49100;48.842;2.166;2022-11-20T04:13:07;28.50;;;26.75;;
63010;SDS011;49100;48.842;2.166;2022-11-20T04:15:51;31.50;;;23.25;;
63010;SDS011;49100;48.842;2.166;2022-11-20T04:18:40;30.50;;;27.25;;
63010;SDS011;49100;48.842;2.166;2022-11-20T04:21:25;32.25;;;26.25;;
63010;SDS011;49100;48.842;2.166;2022-11-20T04:24:10;29.75;;;26.00;;
63010;SDS011;49100;48.842;2.166;2022-11-20T04:26:54;28.75;;;24.75;;
63010;SDS011;49100;48.842;2.166;2022-11-20T04:29:38;30.00;;;24.75;;
63010;SDS011;49100;48.842;2.166;2022-11-20T04:32:23;33.75;;;27.00;;
63010;SDS011;49100;48.842;2.166;2022-11-20T04:35:07;29.50;;;27.50;;
63010;SDS011;49100;48.842;2.166;2022-11-20T04:37:52;28.00;;;26.25;;
63010;SDS011;49100;48.842;2.166;2022-11-20T04:40:36;28.75;;;25.00;;
63010;SDS011;49100;48.842;2.166;2022-11-20T04:43:20;33.00;;;27.25;;
63010;SDS011;49100;48.842;2.166;2022-11-20T04:46:05;29.75;;;27.25;;
63010;SDS011;49100;48.842;2.166;2022-11-20T04:48:49;32.50;;;28.25;;
63010;SDS011;49100;48.842;2.166;2022-11-20T04:51:34;34.25;;;30.25;;
63010;SDS011;49100;48.842;2.166;2022-11-20T04:54:18;37.00;;;31.50;;
63010;SDS011;49100;48.842;2.166;2022-11-20T04:57:04;38.25;;;30.50;;
63010;SDS011;49100;48.842;2.166;2022-11-20T04:59:48;27.50;;;25.75;;
63010;SDS011;49100;48.842;2.166;2022-11-20T05:02:32;40.00;;;31.75;;
63010;SDS011;49100;48.842;2.166;2022-11-20T05:05:17;32.75;;;29.25;;
63010;SDS011;49100;48.842;2.166;2022-11-20T05:08:02;33.25;;;27.50;;
63010;SDS011;49100;48.842;2.166;2022-11-20T05:10:46;31.00;;;27.25;;
63010;SDS011;49100;48.842;2.166;2022-11-20T05:13:31;30.25;;;28.50;;
63010;SDS011;49100;48.842;2.166;2022-11-20T05:16:16;34.50;;;30.25;;
63010;SDS011;49100;48.842;2.166;2022-11-20T05:19:01;34.00;;;29.00;;
63010;SDS011;49100;48.842;2.166;2022-11-20T05:21:45;34.00;;;31.50;;
63010;SDS011;49100;48.842;2.166;2022-11-20T05:24:29;37.25;;;32.00;;
63010;SDS011;49100;48.842;2.166;2022-11-20T05:27:14;36.50;;;31.25;;
63010;SDS011;49100;48.842;2.166;2022-11-20T05:29:58;45.50;;;33.00;;
63010;SDS011;49100;48.842;2.166;2022-11-20T05:32:43;44.00;;;33.25;;
63010;SDS011;49100;48.842;2.166;2022-11-20T05:35:27;36.00;;;32.50;;
63010;SDS011;49100;48.842;2.166;2022-11-20T05:38:12;41.00;;;32.00;;
63010;SDS011;49100;48.842;2.166;2022-11-20T05:41:06;43.00;;;35.00;;
63010;SDS011;49100;48.842;2.166;2022-11-20T05:43:50;44.00;;;34.00;;
63010;SDS011;49100;48.842;2.166;2022-11-20T05:46:35;39.00;;;32.00;;
63010;SDS011;49100;48.842;2.166;2022-11-20T05:49:19;45.75;;;37.50;;
63010;SDS011;49100;48.842;2.166;2022-11-20T05:52:03;45.00;;;37.25;;
63010;SDS011;49100;48.842;2.166;2022-11-20T05:54:48;44.00;;;34.75;;
63010;SDS011;49100;48.842;2.166;2022-11-20T05:57:32;41.25;;;35.00;;
63010;SDS011;49100;48.842;2.166;2022-11-20T06:00:18;47.50;;;36.50;;
63010;SDS011;49100;48.842;2.166;2022-11-20T06:03:02;46.50;;;36.00;;
63010;SDS011;49100;48.842;2.166;2022-11-20T06:05:47;43.50;;;35.00;;
63010;SDS011;49100;48.842;2.166;2022-11-20T06:08:32;41.25;;;34.50;;
63010;SDS011;49100;48.842;2.166;2022-11-20T06:11:16;47.50;;;37.75;;
63010;SDS011;49100;48.842;2.166;2022-11-20T06:14:01;45.25;;;35.75;;
63010;SDS011;49100;48.842;2.166;2022-11-20T06:16:45;47.00;;;38.25;;
63010;SDS011;49100;48.842;2.166;2022-11-20T06:19:30;49.25;;;39.50;;
63010;SDS011;49100;48.842;2.166;2022-11-20T06:22:14;50.50;;;41.50;;
63010;SDS011;49100;48.842;2.166;2022-11-20T06:24:58;45.75;;;38.00;;
63010;SDS011;49100;48.842;2.166;2022-11-20T06:27:43;52.00;;;39.00;;
63010;SDS011;49100;48.842;2.166;2022-11-20T06:30:27;47.50;;;39.50;;
63010;SDS011;49100;48.842;2.166;2022-11-20T06:33:12;49.75;;;38.25;;
63010;SDS011;49100;48.842;2.166;2022-11-20T06:36:00;51.00;;;40.00;;
63010;SDS011;49100;48.842;2.166;2022-11-20T06:38:44;50.25;;;39.00;;
63010;SDS011;49100;48.842;2.166;2022-11-20T06:41:29;49.25;;;41.00;;
63010;SDS011;49100;48.842;2.166;2022-11-20T06:44:13;50.00;;;42.50;;
63010;SDS011;49100;48.842;2.166;2022-11-20T06:46:58;54.00;;;44.25;;
63010;SDS011;49100;48.842;2.166;2022-11-20T06:49:42;52.25;;;42.25;;
63010;SDS011;49100;48.842;2.166;2022-11-20T06:52:27;52.75;;;42.25;;
63010;SDS011;49100;48.842;2.166;2022-11-20T06:55:11;50.00;;;40.00;;
63010;SDS011;49100;48.842;2.166;2022-11-20T06:57:55;48.50;;;38.50;;
63010;SDS011;49100;48.842;2.166;2022-11-20T07:00:40;49.00;;;40.75;;
63010;SDS011;49100;48.842;2.166;2022-11-20T07:03:25;52.00;;;40.50;;
63010;SDS011;49100;48.842;2.166;2022-11-20T07:06:09;52.50;;;42.25;;
63010;SDS011;49100;48.842;2.166;2022-11-20T07:08:54;53.00;;;43.50;;
63010;SDS011;49100;48.842;2.166;2022-11-20T07:11:39;52.50;;;41.50;;
63010;SDS011;49100;48.842;2.166;2022-11-20T07:14:23;55.00;;;43.50;;
63010;SDS011;49100;48.842;2.166;2022-11-20T07:17:08;50.50;;;41.50;;
63010;SDS011;49100;48.842;2.166;2022-11-20T07:19:52;54.25;;;43.00;;
63010;SDS011;49100;48.842;2.166;2022-11-20T07:22:36;55.75;;;43.00;;
63010;SDS011;49100;48.842;2.166;2022-11-20T07:25:22;55.25;;;42.50;;
63010;SDS011;49100;48.842;2.166;2022-11-20T07:28:06;52.25;;;42.25;;
63010;SDS011;49100;48.842;2.166;2022-11-20T07:30:53;50.00;;;40.00;;
63010;SDS011;49100;48.842;2.166;2022-11-20T07:33:38;55.00;;;41.25;;
63010;SDS011;49100;48.842;2.166;2022-11-20T07:36:23;52.75;;;41.00;;
63010;SDS011;49100;48.842;2.166;2022-11-20T07:39:07;51.50;;;39.50;;
63010;SDS011;49100;48.842;2.166;2022-11-20T07:41:51;48.75;;;37.75;;
63010;SDS011;49100;48.842;2.166;2022-11-20T07:44:36;48.75;;;39.25;;
63010;SDS011;49100;48.842;2.166;2022-11-20T07:47:20;41.00;;;35.25;;
63010;SDS011;49100;48.842;2.166;2022-11-20T07:50:05;41.75;;;34.00;;
63010;SDS011;49100;48.842;2.166;2022-11-20T07:52:49;40.75;;;33.25;;
63010;SDS011;49100;48.842;2.166;2022-11-20T07:55:34;37.25;;;30.00;;
63010;SDS011;49100;48.842;2.166;2022-11-20T07:58:18;36.25;;;29.50;;
63010;SDS011;49100;48.842;2.166;2022-11-20T08:01:04;31.25;;;27.50;;
63010;SDS011;49100;48.842;2.166;2022-11-20T08:03:49;26.25;;;22.00;;
63010;SDS011;49100;48.842;2.166;2022-11-20T08:06:33;37.00;;;29.00;;
63010;SDS011;49100;48.842;2.166;2022-11-20T08:09:17;26.00;;;22.25;;
63010;SDS011;49100;48.842;2.166;2022-11-20T08:12:02;31.50;;;28.25;;
63010;SDS011;49100;48.842;2.166;2022-11-20T08:15:05;38.50;;;26.00;;
63010;SDS011;49100;48.842;2.166;2022-11-20T08:17:49;43.25;;;30.50;;
63010;SDS011;49100;48.842;2.166;2022-11-20T08:20:34;30.50;;;28.75;;
63010;SDS011;49100;48.842;2.166;2022-11-20T08:23:19;32.50;;;29.25;;
63010;SDS011;49100;48.842;2.166;2022-11-20T08:26:03;38.00;;;29.50;;
63010;SDS011;49100;48.842;2.166;2022-11-20T08:28:47;34.75;;;27.00;;
63010;SDS011;49100;48.842;2.166;2022-11-20T08:31:32;31.00;;;26.25;;
63010;SDS011;49100;48.842;2.166;2022-11-20T08:34:16;29.75;;;26.50;;
63010;SDS011;49100;48.842;2.166;2022-11-20T08:37:01;25.00;;;23.75;;
63010;SDS011;49100;48.842;2.166;2022-11-20T08:39:46;24.00;;;22.25;;
63010;SDS011;49100;48.842;2.166;2022-11-20T08:42:31;26.25;;;22.25;;
63010;SDS011;49100;48.842;2.166;2022-11-20T08:45:16;24.00;;;22.75;;
63010;SDS011;49100;48.842;2.166;2022-11-20T08:48:01;28.25;;;26.00;;
63010;SDS011;49100;48.842;2.166;2022-11-20T08:50:45;29.25;;;23.25;;
63010;SDS011;49100;48.842;2.166;2022-11-20T08:53:30;22.50;;;19.75;;
63010;SDS011;49100;48.842;2.166;2022-11-20T08:56:14;31.50;;;25.25;;
63010;SDS011;49100;48.842;2.166;2022-11-20T08:58:59;30.50;;;25.50;;
63010;SDS011;49100;48.842;2.166;2022-11-20T09:01:43;24.75;;;20.50;;
63010;SDS011;49100;48.842;2.166;2022-11-20T09:04:28;26.25;;;21.50;;
63010;SDS011;49100;48.842;2.166;2022-11-20T09:07:12;25.75;;;24.75;;
63010;SDS011;49100;48.842;2.166;2022-11-20T09:09:57;27.75;;;20.00;;
63010;SDS011;49100;48.842;2.166;2022-11-20T09:12:41;23.75;;;19.00;;
63010;SDS011;49100;48.842;2.166;2022-11-20T09:15:26;20.25;;;19.75;;
63010;SDS011;49100;48.842;2.166;2022-11-20T09:18:10;19.50;;;18.00;;
63010;SDS011;49100;48.842;2.166;2022-11-20T09:20:58;21.00;;;15.50;;
63010;SDS011;49100;48.842;2.166;2022-11-20T09:23:43;21.00;;;16.75;;
63010;SDS011;49100;48.842;2.166;2022-11-20T09:26:27;16.25;;;16.25;;
63010;SDS011;49100;48.842;2.166;2022-11-20T09:29:11;19.50;;;17.25;;
63010;SDS011;49100;48.842;2.166;2022-11-20T09:31:56;15.75;;;12.50;;
63010;SDS011;49100;48.842;2.166;2022-11-20T09:34:40;18.75;;;15.75;;
63010;SDS011;49100;48.842;2.166;2022-11-20T09:37:24;18.00;;;16.00;;
63010;SDS011;49100;48.842;2.166;2022-11-20T09:40:25;19.25;;;16.25;;
63010;SDS011;49100;48.842;2.166;2022-11-20T09:43:16;15.00;;;13.00;;
63010;SDS011;49100;48.842;2.166;2022-11-20T09:46:07;20.00;;;14.75;;
63010;SDS011;49100;48.842;2.166;2022-11-20T09:52:09;17.75;;;13.50;;
63010;SDS011;49100;48.842;2.166;2022-11-20T09:55:01;15.50;;;14.75;;
63010;SDS011;49100;48.842;2.166;2022-11-20T09:57:46;13.25;;;11.00;;
63010;SDS011;49100;48.842;2.166;2022-11-20T10:00:32;14.50;;;12.00;;
63010;SDS011;49100;48.842;2.166;2022-11-20T10:03:16;12.75;;;11.00;;
63010;SDS011;49100;48.842;2.166;2022-11-20T10:06:03;17.75;;;12.00;;
63010;SDS011;49100;48.842;2.166;2022-11-20T10:08:55;16.00;;;11.75;;
63010;SDS011;49100;48.842;2.166;2022-11-20T10:11:58;14.25;;;13.25;;
63010;SDS011;49100;48.842;2.166;2022-11-20T10:17:42;13.50;;;13.25;;
63010;SDS011;49100;48.842;2.166;2022-11-20T10:26:16;18.50;;;13.50;;
63010;SDS011;49100;48.842;2.166;2022-11-20T10:29:13;15.75;;;14.25;;
63010;SDS011;49100;48.842;2.166;2022-11-20T10:32:08;13.25;;;12.50;;
63010;SDS011;49100;48.842;2.166;2022-11-20T10:35:07;14.25;;;11.00;;
63010;SDS011;49100;48.842;2.166;2022-11-20T10:37:59;15.00;;;12.00;;
63010;SDS011;49100;48.842;2.166;2022-11-20T10:40:44;12.75;;;11.25;;
63010;SDS011;49100;48.842;2.166;2022-11-20T10:43:33;16.00;;;12.75;;
63010;SDS011;49100;48.842;2.166;2022-11-20T10:46:18;14.75;;;13.00;;
63010;SDS011;49100;48.842;2.166;2022-11-20T10:49:15;16.00;;;14.50;;
63010;SDS011;49100;48.842;2.166;2022-11-20T10:54:56;14.50;;;12.50;;
63010;SDS011;49100;48.842;2.166;2022-11-20T10:57:49;17.25;;;14.50;;
63010;SDS011;49100;48.842;2.166;2022-11-20T11:00:36;15.50;;;15.50;;
63010;SDS011;49100;48.842;2.166;2022-11-20T11:03:22;13.50;;;13.50;;
63010;SDS011;49100;48.842;2.166;2022-11-20T11:09:11;19.50;;;13.25;;
63010;SDS011;49100;48.842;2.166;2022-11-20T11:11:57;17.50;;;14.00;;
63010;SDS011;49100;48.842;2.166;2022-11-20T11:14:42;12.25;;;10.50;;
63010;SDS011;49100;48.842;2.166;2022-11-20T11:17:28;14.75;;;12.25;;
63010;SDS011;49100;48.842;2.166;2022-11-20T11:22:58;14.50;;;12.00;;
63010;SDS011;49100;48.842;2.166;2022-11-20T11:25:43;14.50;;;11.00;;
63010;SDS011;49100;48.842;2.166;2022-11-20T11:28:39;14.00;;;12.00;;
63010;SDS011;49100;48.842;2.166;2022-11-20T11:31:25;11.00;;;10.50;;
63010;SDS011;49100;48.842;2.166;2022-11-20T11:34:16;12.00;;;9.75;;
63010;SDS011;49100;48.842;2.166;2022-11-20T11:37:01;14.25;;;12.50;;
63010;SDS011;49100;48.842;2.166;2022-11-20T11:39:47;15.25;;;11.50;;
63010;SDS011;49100;48.842;2.166;2022-11-20T11:42:32;15.75;;;12.75;;
63010;SDS011;49100;48.842;2.166;2022-11-20T11:45:17;13.75;;;11.50;;
63010;SDS011;49100;48.842;2.166;2022-11-20T11:48:02;15.25;;;11.50;;
63010;SDS011;49100;48.842;2.166;2022-11-20T11:50:48;14.50;;;13.00;;
63010;SDS011;49100;48.842;2.166;2022-11-20T11:53:32;13.25;;;13.25;;
63010;SDS011;49100;48.842;2.166;2022-11-20T11:56:17;12.75;;;11.50;;
63010;SDS011;49100;48.842;2.166;2022-11-20T11:59:03;16.25;;;14.00;;
63010;SDS011;49100;48.842;2.166;2022-11-20T12:01:55;12.50;;;9.75;;
63010;SDS011;49100;48.842;2.166;2022-11-20T12:04:43;14.00;;;11.25;;
63010;SDS011;49100;48.842;2.166;2022-11-20T12:16:14;14.00;;;11.00;;
63010;SDS011;49100;48.842;2.166;2022-11-20T12:19:00;11.50;;;7.75;;
63010;SDS011;49100;48.842;2.166;2022-11-20T12:30:16;16.25;;;12.00;;
63010;SDS011;49100;48.842;2.166;2022-11-20T12:33:08;17.25;;;14.00;;
63010;SDS011;49100;48.842;2.166;2022-11-20T12:41:50;14.50;;;13.50;;
63010;SDS011;49100;48.842;2.166;2022-11-20T12:45:01;13.50;;;12.25;;
63010;SDS011;49100;48.842;2.166;2022-11-20T12:53:56;19.00;;;14.25;;
63010;SDS011;49100;48.842;2.166;2022-11-20T12:56:54;16.00;;;14.50;;
63010;SDS011;49100;48.842;2.166;2022-11-20T13:02:37;15.75;;;14.25;;
63010;SDS011;49100;48.842;2.166;2022-11-20T13:08:23;19.00;;;15.75;;
63010;SDS011;49100;48.842;2.166;2022-11-20T13:14:33;14.00;;;12.00;;
63010;SDS011;49100;48.842;2.166;2022-11-20T13:20:06;15.25;;;14.25;;
63010;SDS011;49100;48.842;2.166;2022-11-20T13:22:51;17.50;;;15.50;;
63010;SDS011;49100;48.842;2.166;2022-11-20T13:25:36;21.75;;;16.25;;
63010;SDS011;49100;48.842;2.166;2022-11-20T13:31:09;17.50;;;17.00;;
63010;SDS011;49100;48.842;2.166;2022-11-20T13:34:09;16.50;;;14.25;;
63010;SDS011;49100;48.842;2.166;2022-11-20T13:36:56;19.00;;;15.75;;
63010;SDS011;49100;48.842;2.166;2022-11-20T13:39:41;16.00;;;14.00;;
63010;SDS011;49100;48.842;2.166;2022-11-20T13:42:27;19.75;;;17.75;;
63010;SDS011;49100;48.842;2.166;2022-11-20T13:45:21;20.75;;;16.25;;
63010;SDS011;49100;48.842;2.166;2022-11-20T13:48:22;15.25;;;12.25;;
63010;SDS011;49100;48.842;2.166;2022-11-20T13:57:22;14.00;;;11.75;;
63010;SDS011;49100;48.842;2.166;2022-11-20T14:00:16;16.00;;;13.75;;
63010;SDS011;49100;48.842;2.166;2022-11-20T14:05:54;15.00;;;14.50;;
63010;SDS011;49100;48.842;2.166;2022-11-20T14:08:40;14.00;;;14.00;;
63010;SDS011;49100;48.842;2.166;2022-11-20T14:11:27;14.50;;;13.25;;
63010;SDS011;49100;48.842;2.166;2022-11-20T14:14:47;16.75;;;15.00;;
63010;SDS011;49100;48.842;2.166;2022-11-20T14:20:12;18.50;;;12.50;;
63010;SDS011;49100;48.842;2.166;2022-11-20T14:22:58;10.50;;;10.50;;
63010;SDS011;49100;48.842;2.166;2022-11-20T14:25:42;18.25;;;13.25;;
63010;SDS011;49100;48.842;2.166;2022-11-20T14:28:29;18.75;;;14.50;;
63010;SDS011;49100;48.842;2.166;2022-11-20T14:31:18;19.00;;;15.75;;
63010;SDS011;49100;48.842;2.166;2022-11-20T14:34:05;13.50;;;13.00;;
63010;SDS011;49100;48.842;2.166;2022-11-20T14:36:53;16.00;;;11.75;;
63010;SDS011;49100;48.842;2.166;2022-11-20T14:39:47;17.00;;;14.00;;
63010;SDS011;49100;48.842;2.166;2022-11-20T14:42:32;13.75;;;12.50;;
63010;SDS011;49100;48.842;2.166;2022-11-20T14:45:17;16.00;;;13.00;;
63010;SDS011;49100;48.842;2.166;2022-11-20T14:48:02;13.75;;;13.00;;
63010;SDS011;49100;48.842;2.166;2022-11-20T14:50:46;18.50;;;13.00;;
63010;SDS011;49100;48.842;2.166;2022-11-20T14:53:31;14.25;;;13.50;;
63010;SDS011;49100;48.842;2.166;2022-11-20T14:56:20;17.75;;;13.75;;
63010;SDS011;49100;48.842;2.166;2022-11-20T14:59:05;15.75;;;13.00;;
63010;SDS011;49100;48.842;2.166;2022-11-20T15:05:02;15.50;;;13.00;;
63010;SDS011;49100;48.842;2.166;2022-11-20T15:07:49;15.50;;;13.75;;
63010;SDS011;49100;48.842;2.166;2022-11-20T15:10:34;16.50;;;13.00;;
63010;SDS011;49100;48.842;2.166;2022-11-20T15:16:14;15.75;;;13.25;;
63010;SDS011;49100;48.842;2.166;2022-11-20T15:19:02;22.00;;;16.50;;
63010;SDS011;49100;48.842;2.166;2022-11-20T15:21:49;14.50;;;12.50;;
63010;SDS011;49100;48.842;2.166;2022-11-20T15:24:33;14.00;;;12.25;;
63010;SDS011;49100;48.842;2.166;2022-11-20T15:27:18;18.25;;;13.75;;
63010;SDS011;49100;48.842;2.166;2022-11-20T15:30:05;13.00;;;8.50;;
63010;SDS011;49100;48.842;2.166;2022-11-20T15:32:55;19.25;;;15.25;;
63010;SDS011;49100;48.842;2.166;2022-11-20T15:35:40;22.25;;;15.00;;
63010;SDS011;49100;48.842;2.166;2022-11-20T15:38:25;15.00;;;12.25;;
63010;SDS011;49100;48.842;2.166;2022-11-20T15:41:09;19.50;;;12.50;;
63010;SDS011;49100;48.842;2.166;2022-11-20T15:43:54;14.00;;;13.00;;
63010;SDS011;49100;48.842;2.166;2022-11-20T15:46:40;18.00;;;12.75;;
63010;SDS011;49100;48.842;2.166;2022-11-20T15:49:26;16.50;;;13.00;;
63010;SDS011;49100;48.842;2.166;2022-11-20T15:52:10;15.50;;;13.50;;
63010;SDS011;49100;48.842;2.166;2022-11-20T15:54:55;13.00;;;13.00;;
63010;SDS011;49100;48.842;2.166;2022-11-20T15:57:40;11.00;;;11.00;;
63010;SDS011;49100;48.842;2.166;2022-11-20T16:00:24;12.75;;;12.25;;
63010;SDS011;49100;48.842;2.166;2022-11-20T16:03:10;16.25;;;12.00;;
63010;SDS011;49100;48.842;2.166;2022-11-20T16:05:54;15.25;;;11.00;;
63010;SDS011;49100;48.842;2.166;2022-11-20T16:08:39;13.00;;;9.00;;
63010;SDS011;49100;48.842;2.166;2022-11-20T16:11:23;15.50;;;14.25;;
63010;SDS011;49100;48.842;2.166;2022-11-20T16:14:08;21.25;;;13.50;;
63010;SDS011;49100;48.842;2.166;2022-11-20T16:17:12;15.00;;;15.00;;
63010;SDS011;49100;48.842;2.166;2022-11-20T16:19:57;16.00;;;14.00;;
63010;SDS011;49100;48.842;2.166;2022-11-20T16:22:41;19.50;;;14.50;;
63010;SDS011;49100;48.842;2.166;2022-11-20T16:25:26;15.00;;;14.50;;
63010;SDS011;49100;48.842;2.166;2022-11-20T16:28:11;15.75;;;14.25;;
63010;SDS011;49100;48.842;2.166;2022-11-20T16:30:55;20.75;;;13.25;;
63010;SDS011;49100;48.842;2.166;2022-11-20T16:33:40;16.25;;;14.50;;
63010;SDS011;49100;48.842;2.166;2022-11-20T16:36:24;19.75;;;16.25;;
63010;SDS011;49100;48.842;2.166;2022-11-20T16:39:09;18.25;;;14.50;;
63010;SDS011;49100;48.842;2.166;2022-11-20T16:41:53;16.75;;;14.50;;
63010;SDS011;49100;48.842;2.166;2022-11-20T16:44:38;15.00;;;13.75;;
63010;SDS011;49100;48.842;2.166;2022-11-20T16:47:22;15.75;;;13.75;;
63010;SDS011;49100;48.842;2.166;2022-11-20T16:50:07;15.50;;;14.50;;
63010;SDS011;49100;48.842;2.166;2022-11-20T16:52:51;17.75;;;13.50;;
63010;SDS011;49100;48.842;2.166;2022-11-20T16:55:36;19.25;;;15.75;;
63010;SDS011;49100;48.842;2.166;2022-11-20T16:58:20;19.00;;;12.00;;
63010;SDS011;49100;48.842;2.166;2022-11-20T17:01:05;19.75;;;16.75;;
63010;SDS011;49100;48.842;2.166;2022-11-20T17:04:00;17.00;;;16.25;;
63010;SDS011;49100;48.842;2.166;2022-11-20T17:06:44;17.00;;;13.75;;
63010;SDS011;49100;48.842;2.166;2022-11-20T17:09:30;15.50;;;15.50;;
63010;SDS011;49100;48.842;2.166;2022-11-20T17:12:15;0.00;;;0.00;;
63010;SDS011;49100;48.842;2.166;2022-11-20T17:14:59;19.00;;;14.75;;
63010;SDS011;49100;48.842;2.166;2022-11-20T17:17:43;17.75;;;13.50;;
63010;SDS011;49100;48.842;2.166;2022-11-20T17:20:28;16.00;;;13.50;;
63010;SDS011;49100;48.842;2.166;2022-11-20T17:23:13;16.25;;;14.75;;
63010;SDS011;49100;48.842;2.166;2022-11-20T17:26:04;16.50;;;14.25;;
63010;SDS011;49100;48.842;2.166;2022-11-20T17:28:53;16.00;;;14.75;;
63010;SDS011;49100;48.842;2.166;2022-11-20T17:31:38;18.75;;;14.50;;
63010;SDS011;49100;48.842;2.166;2022-11-20T17:34:23;18.25;;;15.25;;
63010;SDS011;49100;48.842;2.166;2022-11-20T17:37:07;21.75;;;18.00;;
63010;SDS011;49100;48.842;2.166;2022-11-20T17:39:51;16.50;;;15.25;;